createdAt,value
2019-04-21T00:00:57.203Z,19.65
2019-04-21T00:03:25.781Z,18.92
2019-04-21T00:06:11.976Z,21.35
2019-04-21T00:08:56.520Z,21.60
2019-04-21T00:13:35.499Z,19.02
2019-04-21T00:15:58.952Z,18.80
2019-04-21T00:18:51.925Z,18.35
2019-04-21T00:21:23.226Z,16.07
2019-04-21T00:24:01.556Z,17.25
2019-04-21T00:26:35.154Z,18.20
2019-04-21T00:29:09.582Z,18.75
2019-04-21T00:31:33.946Z,20.85
2019-04-21T00:33:49.666Z,20.15
2019-04-21T00:36:25.277Z,20.57
2019-04-21T00:39:23.199Z,19.62
2019-04-21T00:41:36.738Z,19.25
2019-04-21T00:44:04.738Z,20.08
2019-04-21T00:46:35.129Z,21.52
2019-04-21T00:49:06.134Z,22.17
2019-04-21T00:52:00.256Z,20.12
2019-04-21T00:54:29.364Z,19.75
2019-04-21T00:56:49.949Z,20.43
2019-04-21T00:59:19.350Z,17.32
2019-04-21T01:01:49.314Z,21.50
2019-04-21T01:04:24.265Z,20.85
2019-04-21T01:06:56.032Z,20.80
2019-04-21T01:09:25.960Z,18.52
2019-04-21T01:11:55.389Z,18.90
2019-04-21T01:14:30.241Z,18.50
2019-04-21T01:17:02.232Z,17.57
2019-04-21T01:19:27.773Z,20.12
2019-04-21T01:21:38.911Z,19.05
2019-04-21T01:24:13.433Z,19.70
2019-04-21T01:26:49.735Z,19.00
2019-04-21T01:29:35.700Z,19.37
2019-04-21T01:32:08.600Z,21.40
2019-04-21T01:34:37.309Z,21.77
2019-04-21T01:36:58.459Z,25.02
2019-04-21T01:39:34.999Z,25.23
2019-04-21T01:42:03.565Z,25.35
2019-04-21T01:44:39.131Z,22.70
2019-04-21T01:46:58.595Z,23.38
2019-04-21T01:49:26.392Z,23.67
2019-04-21T01:52:17.869Z,23.62
2019-04-21T01:54:56.090Z,23.35
2019-04-21T01:57:29.473Z,23.15
2019-04-21T01:59:55.016Z,22.45
2019-04-21T02:02:40.324Z,22.73
2019-04-21T02:05:10.499Z,24.00
2019-04-21T02:07:34.481Z,22.75
2019-04-21T02:10:16.342Z,23.62
2019-04-21T02:12:40.549Z,25.25
2019-04-21T02:15:14.251Z,23.05
2019-04-21T02:17:35.698Z,22.80
2019-04-21T02:20:04.137Z,23.45
2019-04-21T02:22:59.125Z,22.75
2019-04-21T02:25:18.428Z,22.50
2019-04-21T02:27:47.499Z,20.70
2019-04-21T02:30:21.768Z,20.05
2019-04-21T02:33:01.302Z,22.00
2019-04-21T02:35:34.115Z,20.45
2019-04-21T02:38:01.221Z,22.27
2019-04-21T02:40:39.905Z,24.20
2019-04-21T02:45:23.171Z,25.10
2019-04-21T02:48:06.960Z,26.30
2019-04-21T02:50:28.337Z,23.85
2019-04-21T02:52:52.787Z,25.15
2019-04-21T02:55:22.308Z,28.47
2019-04-21T03:00:34.727Z,24.82
2019-04-21T03:03:26.027Z,21.00
2019-04-21T03:05:50.913Z,22.90
2019-04-21T03:08:32.166Z,21.50
2019-04-21T03:10:55.357Z,20.17
2019-04-21T03:13:29.738Z,22.40
2019-04-21T03:15:59.877Z,19.48
2019-04-21T03:23:29.401Z,19.48
2019-04-21T03:26:00.898Z,21.93
2019-04-21T03:28:32.320Z,21.12
2019-04-21T03:31:19.665Z,18.82
2019-04-21T03:36:37.992Z,21.12
2019-04-21T03:38:40.446Z,24.00
2019-04-21T03:41:04.011Z,27.58
2019-04-21T03:43:34.865Z,30.17
2019-04-21T03:46:00.921Z,31.05
2019-04-21T03:48:36.600Z,30.57
2019-04-21T03:51:03.626Z,28.17
2019-04-21T03:53:40.449Z,30.00
2019-04-21T03:56:16.005Z,26.07
2019-04-21T04:01:32.867Z,25.88
2019-04-21T04:06:56.515Z,27.70
2019-04-21T04:09:30.042Z,29.32
2019-04-21T04:11:53.130Z,28.70
2019-04-21T04:19:42.226Z,26.68
2019-04-21T04:26:57.031Z,27.77
2019-04-21T04:29:26.380Z,29.75
2019-04-21T04:32:14.774Z,29.77
2019-04-21T04:34:47.327Z,28.70
2019-04-21T04:37:30.217Z,27.62
2019-04-21T04:39:48.545Z,27.45
2019-04-21T04:42:16.078Z,26.05
2019-04-21T04:45:01.608Z,28.17
2019-04-21T04:49:48.068Z,29.72
2019-04-21T04:57:21.842Z,29.00
2019-04-21T04:59:47.825Z,28.85
2019-04-21T05:02:26.561Z,26.17
2019-04-21T05:04:59.116Z,27.90
2019-04-21T05:07:16.946Z,29.23
2019-04-21T05:09:46.934Z,26.17
2019-04-21T05:12:09.271Z,27.05
2019-04-21T05:14:47.021Z,25.77
2019-04-21T05:17:23.858Z,25.35
2019-04-21T05:19:54.089Z,27.40
2019-04-21T05:24:39.031Z,25.27
2019-04-21T05:27:07.329Z,26.20
2019-04-21T05:29:49.283Z,28.10
2019-04-21T05:32:24.379Z,28.23
2019-04-21T05:35:01.621Z,27.48
2019-04-21T05:37:35.066Z,28.75
2019-04-21T05:42:35.272Z,28.95
2019-04-21T05:45:26.897Z,29.42
2019-04-21T05:48:12.225Z,25.00
2019-04-21T05:50:27.765Z,27.87
2019-04-21T05:52:55.933Z,23.45
2019-04-21T05:58:04.198Z,17.00
2019-04-21T06:00:56.057Z,17.67
2019-04-21T06:03:03.709Z,17.70
2019-04-21T06:08:09.793Z,15.65
2019-04-21T06:10:41.939Z,16.05
2019-04-21T06:13:13.458Z,16.32
2019-04-21T06:15:45.563Z,15.83
2019-04-21T06:18:11.689Z,14.68
2019-04-21T06:20:44.568Z,15.40
2019-04-21T06:23:14.804Z,15.68
2019-04-21T06:25:55.461Z,14.18
2019-04-21T06:28:13.404Z,13.50
2019-04-21T06:30:50.674Z,12.30
2019-04-21T06:33:16.810Z,12.20
2019-04-21T06:35:59.790Z,8.58
2019-04-21T06:38:21.314Z,8.43
2019-04-21T06:40:50.137Z,9.00
2019-04-21T06:43:25.955Z,8.00
2019-04-21T06:45:53.638Z,7.65
2019-04-21T06:48:20.753Z,7.00
2019-04-21T06:50:57.152Z,7.22
2019-04-21T06:53:23.773Z,7.67
2019-04-21T06:55:57.417Z,6.90
2019-04-21T06:58:18.380Z,7.60
2019-04-21T07:00:46.982Z,7.47
2019-04-21T07:03:29.776Z,6.55
2019-04-21T07:05:57.201Z,6.10
2019-04-21T07:08:49.508Z,6.30
2019-04-21T07:10:56.701Z,6.85
2019-04-21T07:13:30.967Z,5.70
2019-04-21T07:16:07.247Z,5.90
2019-04-21T07:18:37.024Z,5.47
2019-04-21T07:21:08.263Z,6.00
2019-04-21T07:23:42.346Z,6.05
2019-04-21T07:26:03.187Z,6.45
2019-04-21T07:28:40.435Z,6.05
2019-04-21T07:31:12.749Z,6.25
2019-04-21T07:36:06.514Z,5.60
2019-04-21T07:38:33.244Z,5.65
2019-04-21T07:40:59.439Z,6.10
2019-04-21T07:43:36.880Z,9.30
2019-04-21T07:46:02.718Z,6.15
2019-04-21T07:48:43.229Z,6.22
2019-04-21T07:51:48.004Z,6.22
2019-04-21T07:54:20.252Z,6.58
2019-04-21T07:56:28.774Z,5.70
2019-04-21T07:59:10.016Z,5.85
2019-04-21T08:01:48.255Z,5.70
2019-04-21T08:04:33.161Z,6.15
2019-04-21T08:06:46.498Z,6.03
2019-04-21T08:09:11.832Z,11.57
2019-04-21T08:11:43.080Z,5.62
2019-04-21T08:14:20.456Z,6.30
2019-04-21T08:16:53.966Z,5.97
2019-04-21T08:19:18.722Z,5.92
2019-04-21T08:21:51.473Z,5.30
2019-04-21T08:24:21.567Z,5.53
2019-04-21T08:26:53.129Z,5.90
2019-04-21T08:29:25.586Z,5.70
2019-04-21T08:32:00.716Z,5.55
2019-04-21T08:34:21.552Z,5.50
2019-04-21T08:36:51.590Z,5.67
2019-04-21T08:39:22.246Z,5.10
2019-04-21T08:41:51.076Z,5.10
2019-04-21T08:44:26.269Z,5.47
2019-04-21T08:47:00.140Z,4.87
2019-04-21T08:49:26.523Z,4.85
2019-04-21T08:52:00.729Z,4.53
2019-04-21T08:54:26.517Z,5.28
2019-04-21T08:57:15.286Z,5.30
2019-04-21T09:00:01.369Z,5.20
2019-04-21T09:02:33.627Z,5.47
2019-04-21T09:04:54.125Z,5.50
2019-04-21T09:07:35.511Z,5.42
2019-04-21T09:09:57.525Z,4.83
2019-04-21T09:12:32.771Z,5.35
2019-04-21T09:14:54.266Z,5.20
2019-04-21T09:17:22.074Z,5.28
2019-04-21T09:20:07.840Z,5.12
2019-04-21T09:22:29.817Z,5.50
2019-04-21T09:24:55.767Z,5.40
2019-04-21T09:27:28.051Z,5.12
2019-04-21T09:29:47.938Z,5.50
2019-04-21T09:32:19.703Z,6.30
2019-04-21T09:34:45.517Z,5.58
2019-04-21T09:37:26.835Z,4.92
2019-04-21T09:39:48.795Z,4.17
2019-04-21T09:42:19.330Z,4.37
2019-04-21T09:44:48.383Z,4.65
2019-04-21T09:47:21.291Z,4.55
2019-04-21T09:49:47.459Z,4.40
2019-04-21T09:52:23.406Z,4.25
2019-04-21T09:55:01.178Z,4.00
2019-04-21T09:57:27.699Z,4.33
2019-04-21T09:59:59.879Z,4.40
2019-04-21T10:04:50.773Z,3.77
2019-04-21T10:07:27.484Z,4.47
2019-04-21T10:09:50.097Z,4.00
2019-04-21T10:12:19.961Z,4.20
2019-04-21T10:14:49.418Z,3.83
2019-04-21T10:17:37.352Z,3.55
2019-04-21T10:20:09.452Z,3.90
2019-04-21T10:22:39.318Z,4.15
2019-04-21T10:25:12.373Z,3.85
2019-04-21T10:27:41.419Z,3.67
2019-04-21T10:30:12.061Z,3.98
2019-04-21T10:32:40.805Z,3.90
2019-04-21T10:35:10.942Z,3.60
2019-04-21T10:37:49.895Z,4.03
2019-04-21T10:40:11.754Z,3.47
2019-04-21T10:42:40.643Z,3.65
2019-04-21T10:45:10.858Z,3.47
2019-04-21T10:47:40.939Z,3.70
2019-04-21T10:50:10.979Z,3.15
2019-04-21T10:53:00.709Z,3.42
2019-04-21T10:55:45.034Z,3.40
2019-04-21T10:58:04.504Z,3.45
2019-04-21T11:00:34.333Z,3.33
2019-04-21T11:03:21.027Z,3.47
2019-04-21T11:05:54.634Z,3.40
2019-04-21T11:08:30.239Z,2.95
2019-04-21T11:10:58.213Z,3.10
2019-04-21T11:13:26.968Z,2.92
2019-04-21T11:15:57.031Z,2.98
2019-04-21T11:18:26.055Z,3.58
2019-04-21T11:20:55.188Z,3.42
2019-04-21T11:23:25.043Z,3.37
2019-04-21T11:25:54.006Z,3.00
2019-04-21T11:28:22.994Z,3.30
2019-04-21T11:30:53.067Z,3.12
2019-04-21T11:33:22.825Z,3.10
2019-04-21T11:35:53.437Z,3.10
2019-04-21T11:38:29.987Z,3.17
2019-04-21T11:40:58.097Z,3.27
2019-04-21T11:43:28.517Z,2.72
2019-04-21T11:45:58.149Z,3.12
2019-04-21T11:48:28.331Z,3.55
2019-04-21T11:50:57.524Z,3.10
2019-04-21T11:53:26.352Z,4.10
2019-04-21T11:55:55.548Z,3.80
2019-04-21T11:58:26.153Z,3.55
2019-04-21T12:01:00.202Z,3.42
2019-04-21T12:03:29.457Z,3.50
2019-04-21T12:05:59.569Z,3.50
2019-04-21T12:08:36.456Z,3.83
2019-04-21T12:11:03.129Z,3.27
2019-04-21T12:13:32.247Z,3.22
2019-04-21T12:16:01.233Z,3.08
2019-04-21T12:18:31.915Z,3.12
2019-04-21T12:21:01.214Z,3.40
2019-04-21T12:23:30.480Z,3.80
2019-04-21T12:25:59.243Z,3.10
2019-04-21T12:28:28.120Z,3.20
2019-04-21T12:30:57.887Z,3.27
2019-04-21T12:33:40.456Z,3.40
2019-04-21T12:36:09.532Z,3.20
2019-04-21T12:38:46.216Z,3.47
2019-04-21T12:41:08.842Z,3.25
2019-04-21T12:43:38.916Z,3.37
2019-04-21T12:46:07.792Z,3.50
2019-04-21T12:48:38.092Z,3.25
2019-04-21T12:51:07.847Z,3.05
2019-04-21T12:53:39.844Z,3.05
2019-04-21T12:56:10.004Z,3.52
2019-04-21T12:58:39.542Z,3.20
2019-04-21T13:01:09.312Z,2.90
2019-04-21T13:03:39.415Z,3.27
2019-04-21T13:06:11.740Z,3.17
2019-04-21T13:08:51.906Z,2.95
2019-04-21T13:11:15.016Z,3.40
2019-04-21T13:13:43.934Z,3.08
2019-04-21T13:16:13.683Z,2.98
2019-04-21T13:18:42.567Z,3.15
2019-04-21T13:21:12.061Z,3.20
2019-04-21T13:23:41.111Z,3.47
2019-04-21T13:26:11.282Z,3.15
2019-04-21T13:28:41.009Z,3.25
2019-04-21T13:31:09.722Z,3.20
2019-04-21T13:33:39.763Z,3.20
2019-04-21T13:36:11.794Z,3.00
2019-04-21T13:38:57.103Z,3.10
2019-04-21T13:41:32.558Z,3.70
2019-04-21T13:43:53.046Z,3.50
2019-04-21T13:46:22.815Z,3.08
2019-04-21T13:48:52.772Z,3.22
2019-04-21T13:51:22.642Z,3.50
2019-04-21T13:53:51.615Z,3.58
2019-04-21T13:56:20.478Z,3.27
2019-04-21T13:58:50.400Z,3.42
2019-04-21T14:01:19.257Z,3.58
2019-04-21T14:03:49.097Z,3.40
2019-04-21T14:06:18.508Z,3.50
2019-04-21T14:08:49.136Z,3.35
2019-04-21T14:11:17.852Z,3.17
2019-04-21T14:13:47.978Z,3.67
2019-04-21T14:16:18.190Z,3.50
2019-04-21T14:18:47.398Z,3.80
2019-04-21T14:21:16.187Z,3.50
2019-04-21T14:23:48.050Z,3.90
2019-04-21T14:26:16.246Z,2.83
2019-04-21T14:28:45.081Z,3.20
2019-04-21T14:31:20.084Z,3.45
2019-04-21T14:33:47.956Z,3.08
2019-04-21T14:36:16.839Z,2.98
2019-04-21T14:38:46.950Z,3.35
2019-04-21T14:41:17.868Z,3.75
2019-04-21T14:43:47.995Z,3.47
2019-04-21T14:46:21.523Z,3.55
2019-04-21T14:49:09.115Z,3.60
2019-04-21T14:51:56.881Z,3.30
2019-04-21T14:54:33.301Z,3.72
2019-04-21T14:57:03.232Z,3.45
2019-04-21T14:59:33.267Z,3.47
2019-04-21T15:02:04.152Z,3.70
2019-04-21T15:04:35.495Z,3.55
2019-04-21T15:07:05.590Z,3.52
2019-04-21T15:09:37.103Z,3.10
2019-04-21T15:12:05.793Z,3.40
2019-04-21T15:14:35.979Z,3.30
2019-04-21T15:17:05.083Z,3.27
2019-04-21T15:19:34.820Z,3.27
2019-04-21T15:22:03.531Z,3.70
2019-04-21T15:24:34.151Z,3.45
2019-04-21T15:27:03.166Z,3.25
2019-04-21T15:29:34.708Z,3.83
2019-04-21T15:32:04.355Z,3.90
2019-04-21T15:34:34.026Z,3.50
2019-04-21T15:37:04.110Z,3.70
2019-04-21T15:39:34.541Z,3.17
2019-04-21T15:42:03.442Z,3.52
2019-04-21T15:44:32.535Z,3.80
2019-04-21T15:47:02.022Z,3.95
2019-04-21T15:49:40.640Z,4.15
2019-04-21T15:52:04.264Z,3.40
2019-04-21T15:54:34.300Z,3.55
2019-04-21T15:57:04.947Z,3.42
2019-04-21T15:59:36.730Z,3.90
2019-04-21T16:02:24.575Z,3.50
2019-04-21T16:04:54.864Z,3.35
2019-04-21T16:07:24.456Z,3.20
2019-04-21T16:09:54.359Z,3.77
2019-04-21T16:12:23.819Z,3.22
2019-04-21T16:14:52.611Z,3.02
2019-04-21T16:17:21.394Z,3.22
2019-04-21T16:19:50.089Z,3.37
2019-04-21T16:22:18.951Z,3.65
2019-04-21T16:24:47.871Z,3.20
2019-04-21T16:27:17.434Z,3.60
2019-04-21T16:29:46.135Z,3.80
2019-04-21T16:32:19.365Z,3.95
2019-04-21T16:34:55.706Z,3.87
2019-04-21T16:37:19.366Z,3.75
2019-04-21T16:39:49.520Z,3.62
2019-04-21T16:42:18.377Z,3.25
2019-04-21T16:44:49.227Z,3.47
2019-04-21T16:47:19.269Z,3.80
2019-04-21T16:49:48.119Z,3.87
2019-04-21T16:52:24.277Z,3.87
2019-04-21T16:54:56.148Z,3.20
2019-04-21T16:57:39.841Z,3.10
2019-04-21T17:00:13.914Z,3.17
2019-04-21T17:02:42.959Z,3.47
2019-04-21T17:05:12.146Z,3.58
2019-04-21T17:07:41.059Z,4.28
2019-04-21T17:10:15.137Z,4.72
2019-04-21T17:12:45.574Z,5.42
2019-04-21T17:15:32.580Z,5.65
2019-04-21T17:18:06.067Z,6.00
2019-04-21T17:20:33.295Z,6.30
2019-04-21T17:22:49.605Z,6.17
2019-04-21T17:25:21.513Z,6.67
2019-04-21T17:27:49.145Z,7.37
2019-04-21T17:30:18.833Z,7.08
2019-04-21T17:32:53.752Z,7.55
2019-04-21T17:35:23.015Z,7.58
2019-04-21T17:37:52.076Z,7.87
2019-04-21T17:40:26.322Z,7.78
2019-04-21T17:43:02.078Z,7.87
2019-04-21T17:45:26.839Z,8.13
2019-04-21T17:48:03.305Z,7.78
2019-04-21T17:50:49.971Z,6.92
2019-04-21T17:53:33.727Z,6.80
2019-04-21T17:56:20.670Z,7.37
2019-04-21T17:58:49.641Z,7.33
2019-04-21T18:01:40.735Z,7.33
2019-04-21T18:03:58.792Z,7.17
2019-04-21T18:06:26.166Z,7.40
2019-04-21T18:09:00.864Z,6.92
2019-04-21T18:11:27.872Z,7.08
2019-04-21T18:13:41.974Z,7.65
2019-04-21T18:16:24.293Z,6.90
2019-04-21T18:18:41.241Z,7.40
2019-04-21T18:21:18.589Z,8.08
2019-04-21T18:23:58.578Z,7.37
2019-04-21T18:26:28.829Z,7.10
2019-04-21T18:28:53.140Z,7.65
2019-04-21T18:31:20.848Z,6.90
2019-04-21T18:33:59.013Z,6.70
2019-04-21T18:36:38.391Z,6.90
2019-04-21T18:39:39.256Z,6.95
2019-04-21T18:42:18.624Z,6.17
2019-04-21T18:45:06.425Z,7.05
2019-04-21T18:47:32.072Z,7.03
2019-04-21T18:49:54.409Z,7.50
2019-04-21T18:52:42.867Z,7.20
2019-04-21T18:55:09.466Z,7.05
2019-04-21T18:57:36.181Z,7.05
2019-04-21T18:59:57.399Z,7.40
2019-04-21T19:02:26.778Z,7.28
2019-04-21T19:05:03.296Z,7.55
2019-04-21T19:07:46.710Z,7.00
2019-04-21T19:10:23.749Z,7.45
2019-04-21T19:13:16.001Z,7.72
2019-04-21T19:15:15.915Z,7.90
2019-04-21T19:18:14.978Z,8.60
2019-04-21T19:22:49.909Z,8.30
2019-04-21T19:25:20.919Z,8.50
2019-04-21T19:27:51.661Z,9.33
2019-04-21T19:30:29.411Z,7.10
2019-04-21T19:32:53.221Z,8.00
2019-04-21T19:35:10.729Z,8.33
2019-04-21T19:37:49.102Z,6.78
2019-04-21T19:40:31.411Z,6.95
2019-04-21T19:42:55.171Z,7.58
2019-04-21T19:45:28.022Z,7.33
2019-04-21T19:47:59.451Z,7.10
2019-04-21T19:50:36.518Z,7.75
2019-04-21T19:52:55.593Z,7.50
2019-04-21T19:55:16.237Z,7.55
2019-04-21T19:57:45.128Z,7.70
2019-04-21T20:00:15.896Z,7.72
2019-04-21T20:02:46.557Z,8.25
2019-04-21T20:05:27.162Z,8.30
2019-04-21T20:08:04.114Z,8.73
2019-04-21T20:10:44.511Z,8.05
2019-04-21T20:13:07.383Z,8.48
2019-04-21T20:15:41.328Z,7.58
2019-04-21T20:18:02.668Z,8.25
2019-04-21T20:20:21.333Z,8.10
2019-04-21T20:22:51.936Z,8.93
2019-04-21T20:25:23.183Z,7.62
2019-04-21T20:28:01.350Z,7.40
2019-04-21T20:30:46.115Z,7.60
2019-04-21T20:33:39.197Z,7.60
2019-04-21T20:35:54.802Z,8.28
2019-04-21T20:38:12.686Z,6.72
2019-04-21T20:40:40.246Z,7.40
2019-04-21T20:43:16.665Z,7.75
2019-04-21T20:45:52.697Z,6.67
2019-04-21T20:48:13.862Z,6.85
2019-04-21T20:50:41.911Z,6.87
2019-04-21T20:53:19.788Z,6.95
2019-04-21T20:55:48.405Z,8.03
2019-04-21T20:58:23.934Z,5.85
2019-04-21T21:01:06.980Z,6.47
2019-04-21T21:03:24.689Z,6.70
2019-04-21T21:05:51.541Z,6.10
2019-04-21T21:08:31.233Z,6.03
2019-04-21T21:11:06.878Z,5.87
2019-04-21T21:13:44.749Z,7.28
2019-04-21T21:16:27.233Z,6.25
2019-04-21T21:21:11.148Z,6.62
2019-04-21T21:23:42.490Z,6.83
2019-04-21T21:26:18.882Z,6.55
2019-04-21T21:28:38.968Z,6.85
2019-04-21T21:31:17.769Z,7.55
2019-04-21T21:34:00.250Z,8.25
2019-04-21T21:36:20.926Z,7.58
2019-04-21T21:38:53.077Z,9.05
2019-04-21T21:41:15.619Z,9.53
2019-04-21T21:43:34.192Z,9.45
2019-04-21T21:46:15.246Z,9.95
2019-04-21T21:48:45.052Z,9.85
2019-04-21T21:51:39.808Z,9.65
2019-04-21T21:53:54.667Z,9.25
2019-04-21T21:56:24.686Z,9.48
2019-04-21T21:58:55.136Z,10.25
2019-04-21T22:01:31.883Z,10.93
2019-04-21T22:04:05.018Z,9.10
2019-04-21T22:06:38.688Z,10.23
2019-04-21T22:08:58.539Z,10.18
2019-04-21T22:11:27.553Z,10.70
2019-04-21T22:14:02.799Z,9.68
2019-04-21T22:16:38.977Z,8.83
2019-04-21T22:19:14.235Z,10.58
2019-04-21T22:21:47.754Z,9.65
2019-04-21T22:24:05.654Z,8.73
2019-04-21T22:26:29.418Z,8.25
2019-04-21T22:28:58.219Z,9.68
2019-04-21T22:31:31.883Z,9.13
2019-04-21T22:34:02.214Z,9.00
2019-04-21T22:36:43.748Z,9.15
2019-04-21T22:39:17.669Z,8.40
2019-04-21T22:41:35.544Z,8.30
2019-04-21T22:44:01.034Z,8.93
2019-04-21T22:46:32.890Z,9.48
2019-04-21T22:49:07.480Z,8.75
2019-04-21T22:51:37.638Z,8.30
2019-04-21T22:54:03.898Z,8.18
2019-04-21T22:56:34.114Z,8.03
2019-04-21T22:59:08.472Z,7.90
2019-04-21T23:01:40.505Z,7.83
2019-04-21T23:04:05.212Z,7.97
2019-04-21T23:06:39.184Z,6.05
2019-04-21T23:09:09.226Z,7.22
2019-04-21T23:11:42.806Z,6.92
2019-04-21T23:14:12.190Z,6.97
2019-04-21T23:16:42.244Z,5.80
2019-04-21T23:19:26.751Z,6.28
2019-04-21T23:21:59.574Z,5.28
2019-04-21T23:24:34.662Z,6.33
2019-04-21T23:26:57.180Z,5.87
2019-04-21T23:29:45.638Z,5.70
2019-04-21T23:31:58.985Z,6.03
2019-04-21T23:34:21.954Z,4.78
2019-04-21T23:36:53.158Z,5.40
2019-04-21T23:39:23.685Z,5.80
2019-04-21T23:41:51.205Z,5.53
2019-04-21T23:44:18.815Z,4.80
2019-04-21T23:46:51.049Z,5.40
2019-04-21T23:49:29.648Z,4.85
2019-04-21T23:51:58.367Z,4.67
2019-04-21T23:54:19.558Z,5.05
2019-04-21T23:56:49.448Z,4.87
2019-04-21T23:59:18.232Z,5.17
